Terminal Aerodrome Forecast
Issued by NWS Riverton, WY

Home | Current Version | Previous Version | Text Only | Print | Product List | Glossary On
Versions: 1 2 3 4 5 6 7 8 9 10 11 12 13
319
FTUS45 KRIW 131120
TAFRIW
TAF
KRIW 131120Z 1312/1412 24007KT P6SM SCT110 BKN200
     FM132000 30024G32KT P6SM FEW110
     FM140200 32015KT P6SM SCT200
     FM140700 26007KT P6SM BKN200=

USA.gov is the U.S. government's official web portal to all federal, state and local government web resources and services.